Time;durP1;ratioP1;P1;durP2;ratioP2;P2;SDS_P1;SDS_P2;PMS_P1;PMS_P2;Temp;Humidity;BMP_temperature;BMP_pressure;BME280_temperature;BME280_humidity;BME280_pressure;Samples;Min_cycle;Max_cycle;Signal;HPM_P1;HPM_P2
2022/04/06 00:02:04;;;;;;;25.00;12.70;;;;;;;5.86;76.87;98576.23;25138;1312;3028192;-67
2022/04/06 00:04:33;;;;;;;18.00;11.50;;;;;;;5.52;78.47;98573.91;25126;1312;3055305;-65
2022/04/06 00:07:04;;;;;;;15.50;9.30;;;;;;;5.51;78.87;98572.39;25159;1313;3026578;-67
2022/04/06 00:09:39;;;;;;;15.00;9.30;;;;;;;5.96;77.89;98568.77;25097;1312;3051135;-68
2022/04/06 00:12:08;;;;;;;19.10;10.60;;;;;;;6.20;76.76;98571.94;25122;1312;3054729;-66
2022/04/06 00:14:37;;;;;;;16.90;10.80;;;;;;;6.19;76.27;98571.12;25151;1312;3026535;-63
2022/04/06 00:17:07;;;;;;;19.00;11.80;;;;;;;6.01;76.93;98568.16;25102;1312;3049512;-66
2022/04/06 00:19:41;;;;;;;22.60;11.90;;;;;;;5.78;77.85;98578.23;25107;1312;3055166;-71
2022/04/06 00:22:10;;;;;;;13.60;8.60;;;;;;;5.70;78.23;98571.39;25145;1312;3026929;-70
2022/04/06 00:24:41;;;;;;;15.70;9.50;;;;;;;5.99;77.87;98569.83;25099;1312;3051555;-68
2022/04/06 00:27:30;;;;;;;18.20;11.40;;;;;;;6.27;76.60;98563.38;25155;1313;3052011;-64
2022/04/06 00:30:01;;;;;;;26.60;13.20;;;;;;;6.04;77.41;98575.30;25108;1312;3026342;-67
2022/04/06 00:32:30;;;;;;;21.20;12.30;;;;;;;6.02;77.30;98577.28;25126;1312;3026824;-69
2022/04/06 00:37:47;;;;;;;19.60;9.30;;;;;;;5.79;78.52;98589.13;25073;1312;3053875;-72
2022/04/06 00:40:17;;;;;;;16.20;10.30;;;;;;;6.25;77.05;98589.21;25133;1312;3027102;-70
2022/04/06 00:42:47;;;;;;;20.30;11.60;;;;;;;6.47;76.18;98591.09;25166;1313;3053470;-67
2022/04/06 00:45:16;;;;;;;19.90;12.40;;;;;;;6.31;76.63;98591.70;25150;1312;3026550;-69
2022/04/06 00:47:49;;;;;;;18.20;10.70;;;;;;;6.12;77.22;98598.13;25090;1312;3052235;-63
2022/04/06 00:50:18;;;;;;;24.10;13.70;;;;;;;5.98;77.93;98595.26;25100;1312;3028033;-68
2022/04/06 00:52:48;;;;;;;21.40;13.90;;;;;;;5.80;78.51;98604.41;25139;1312;3059144;-70
2022/04/06 00:55:17;;;;;;;20.30;10.80;;;;;;;5.87;79.13;98604.02;25072;1312;3027331;-66
2022/04/06 00:57:48;;;;;;;25.80;11.70;;;;;;;6.23;77.73;98602.59;25110;1312;3026882;-68
2022/04/06 01:00:17;;;;;;;24.60;12.10;;;;;;;6.33;76.81;98605.46;25125;1313;3026129;-68
2022/04/06 01:02:46;;;;;;;23.80;11.60;;;;;;;6.63;75.58;98592.27;25261;1312;3026492;-63
2022/04/06 01:05:16;;;;;;;23.20;13.30;;;;;;;6.16;77.19;98592.87;25429;1312;3026140;-62
2022/04/06 01:07:50;;;;;;;19.30;12.60;;;;;;;6.11;77.81;98594.70;25503;1312;3051237;-62
2022/04/06 01:10:19;;;;;;;18.80;11.50;;;;;;;6.06;78.06;98595.50;25178;1315;3068581;-69
2022/04/06 01:12:49;;;;;;;14.50;9.50;;;;;;;6.65;76.45;98589.19;25106;1312;3029968;-68
2022/04/06 01:15:18;;;;;;;21.10;11.50;;;;;;;6.59;76.04;98593.18;25109;1314;3026633;-66
2022/04/06 01:17:53;;;;;;;21.20;12.10;;;;;;;6.74;75.59;98583.64;25133;1313;3053683;-71
2022/04/06 01:20:22;;;;;;;19.80;12.70;;;;;;;6.64;75.70;98590.52;25151;1312;3027060;-67
2022/04/06 01:23:11;;;;;;;22.40;13.00;;;;;;;6.57;75.77;98588.10;25084;1312;3049973;-67
2022/04/06 01:25:41;;;;;;;20.50;11.90;;;;;;;6.34;76.66;98581.93;25058;1312;3029474;-68
2022/04/06 01:28:11;;;;;;;18.20;9.80;;;;;;;6.36;76.89;98582.70;25126;1312;3028324;-64
2022/04/06 01:30:49;;;;;;;17.00;10.00;;;;;;;6.89;75.44;98579.06;25096;1312;3071867;-67
2022/04/06 01:33:18;;;;;;;18.90;10.80;;;;;;;7.18;74.02;98577.39;25128;1312;3026259;-67
2022/04/06 01:35:49;;;;;;;29.00;12.80;;;;;;;7.17;73.91;98575.17;25173;1312;3026868;-67
2022/04/06 01:38:20;;;;;;;20.80;11.30;;;;;;;6.88;74.91;98576.35;25150;1312;3026326;-68
2022/04/06 01:40:49;;;;;;;23.70;13.20;;;;;;;6.73;75.30;98574.95;25133;1312;3028745;-66
2022/04/06 01:43:19;;;;;;;24.30;13.60;;;;;;;6.50;76.26;98579.27;25101;1312;3052526;-66
2022/04/06 01:45:55;;;;;;;20.70;10.10;;;;;;;6.46;76.82;98575.88;25097;1312;3054921;-68
2022/04/06 01:48:24;;;;;;;20.40;11.00;;;;;;;6.98;75.22;98570.73;25144;1312;3026941;-63
2022/04/06 01:53:41;;;;;;;21.30;11.80;;;;;;;7.08;74.24;98575.15;25082;1312;3055026;-65
2022/04/06 01:56:10;;;;;;;20.90;11.20;;;;;;;6.69;75.69;98581.12;25112;1312;3026140;-68
2022/04/06 01:58:40;;;;;;;24.60;13.00;;;;;;;6.66;75.83;98578.02;25094;1312;3028540;-66
2022/04/06 02:01:09;;;;;;;22.10;12.60;;;;;;;6.46;76.80;98591.02;25102;1312;3054474;-68
2022/04/06 02:03:38;;;;;;;19.00;10.60;;;;;;;6.29;77.86;98588.65;25091;1315;3026604;-66
2022/04/06 02:06:07;;;;;;;18.70;10.00;;;;;;;6.66;76.97;98593.83;25118;1313;3054772;-68
2022/04/06 02:08:36;;;;;;;18.90;10.80;;;;;;;7.06;75.15;98588.38;25098;1312;3026574;-66
2022/04/06 02:11:06;;;;;;;24.60;12.60;;;;;;;6.99;75.40;98595.75;25089;1312;3051045;-69
2022/04/06 02:13:36;;;;;;;19.20;11.80;;;;;;;6.96;75.26;98592.25;25198;1313;3026376;-67
2022/04/06 02:16:07;;;;;;;21.90;12.80;;;;;;;6.75;75.73;98600.27;25120;1313;3026526;-63
2022/04/06 02:18:37;;;;;;;28.10;13.40;;;;;;;6.62;76.72;98606.61;25153;1313;3027435;-69
2022/04/06 02:21:06;;;;;;;19.90;10.80;;;;;;;6.57;76.99;98606.04;25192;1313;3026828;-67
2022/04/06 02:23:36;;;;;;;19.10;10.20;;;;;;;7.02;75.89;98607.39;25168;1312;3055271;-69
2022/04/06 02:26:05;;;;;;;23.10;11.20;;;;;;;7.52;73.67;98599.70;25146;1312;3028415;-67
2022/04/06 02:28:34;;;;;;;16.50;10.70;;;;;;;7.47;73.13;98600.31;25168;1312;3026102;-66
2022/04/06 02:31:04;;;;;;;26.90;12.80;;;;;;;7.12;74.42;98611.67;25125;1312;3026462;-66
2022/04/06 02:33:33;;;;;;;20.30;11.70;;;;;;;6.84;75.73;98615.75;25116;1312;3026555;-70
2022/04/06 02:36:03;;;;;;;26.40;12.60;;;;;;;6.65;76.60;98610.98;25174;1312;3049660;-70
2022/04/06 02:38:38;;;;;;;24.70;12.50;;;;;;;6.69;76.48;98614.00;25180;1312;3027254;-72
2022/04/06 02:41:19;;;;;;;17.10;9.50;;;;;;;6.52;77.30;98620.54;25091;1312;3053721;-68
2022/04/06 02:43:48;;;;;;;18.00;9.80;;;;;;;7.06;75.96;98618.81;25136;1312;3026580;-62
2022/04/06 02:46:17;;;;;;;23.40;10.70;;;;;;;7.38;74.40;98611.86;25104;1312;3026335;-67
2022/04/06 02:49:06;;;;;;;25.50;11.90;;;;;;;7.09;74.94;98610.96;25111;1312;3054793;-69
2022/04/06 02:51:35;;;;;;;20.00;10.30;;;;;;;6.93;75.49;98618.91;25078;1312;3026852;-70
2022/04/06 02:54:04;;;;;;;17.80;11.60;;;;;;;6.94;75.34;98625.98;25159;1313;3053734;-68
2022/04/06 02:56:34;;;;;;;22.00;11.40;;;;;;;6.58;76.99;98634.68;25163;1313;3026787;-64
2022/04/06 02:59:03;;;;;;;16.70;8.20;;;;;;;6.60;77.17;98636.11;25122;1313;3026544;-65
2022/04/06 03:01:32;;;;;;;19.60;8.30;;;;;;;7.11;75.66;98635.77;25104;1312;3053766;-69
2022/04/06 03:04:01;;;;;;;21.90;10.20;;;;;;;7.70;73.28;98636.24;25080;1312;3026254;-69
2022/04/06 03:06:30;;;;;;;21.60;11.60;;;;;;;7.38;74.33;98638.84;25154;1312;3026532;-65
2022/04/06 03:08:59;;;;;;;19.10;10.70;;;;;;;7.40;74.11;98643.60;25103;1312;3054707;-67
2022/04/06 03:11:29;;;;;;;21.50;11.20;;;;;;;7.27;74.14;98647.67;25103;1312;3027087;-68
2022/04/06 03:13:58;;;;;;;18.80;10.20;;;;;;;6.97;75.28;98654.87;25104;1312;3026759;-67
2022/04/06 03:16:28;;;;;;;17.70;9.40;;;;;;;6.78;76.51;98657.55;25167;1313;3026579;-65
2022/04/06 03:18:57;;;;;;;17.50;10.10;;;;;;;7.34;75.08;98658.27;25074;1313;3026671;-69
2022/04/06 03:21:26;;;;;;;22.80;9.80;;;;;;;7.48;74.29;98646.99;25137;1313;3070897;-63
2022/04/06 03:23:55;;;;;;;21.50;10.50;;;;;;;7.48;74.07;98644.71;25067;1312;3026523;-69
2022/04/06 03:26:24;;;;;;;16.70;10.10;;;;;;;7.28;74.53;98647.63;25154;1312;3053463;-69
2022/04/06 03:28:53;;;;;;;20.50;11.80;;;;;;;7.19;74.44;98646.45;25088;1313;3026342;-68
2022/04/06 03:31:24;;;;;;;21.00;11.60;;;;;;;6.72;76.87;98661.91;25131;1313;3052830;-66
2022/04/06 03:33:53;;;;;;;24.40;10.50;;;;;;;6.87;75.92;98675.81;25106;1313;3026591;-67
2022/04/06 03:36:23;;;;;;;24.30;10.60;;;;;;;6.78;76.29;98675.27;25094;1312;3052713;-62
2022/04/06 03:38:52;;;;;;;17.20;10.10;;;;;;;7.59;74.67;98681.80;25111;1312;3026753;-69
2022/04/06 03:41:22;;;;;;;16.90;9.40;;;;;;;7.85;72.61;98673.48;25143;1313;3057321;-66
2022/04/06 03:43:52;;;;;;;18.60;10.60;;;;;;;7.86;72.46;98668.01;25147;1313;3026767;-69
2022/04/06 03:46:21;;;;;;;17.90;10.30;;;;;;;7.53;73.23;98676.65;25168;1312;3052165;-67
2022/04/06 03:48:50;;;;;;;19.60;10.70;;;;;;;7.44;73.27;98676.10;25139;1313;3027181;-73
2022/04/06 03:51:19;;;;;;;24.80;11.10;;;;;;;7.34;73.44;98681.98;25091;1312;3054717;-67
2022/04/06 03:53:49;;;;;;;25.90;12.30;;;;;;;7.23;73.62;98684.18;25073;1312;3026923;-67
2022/04/06 03:56:18;;;;;;;24.30;10.40;;;;;;;7.00;74.86;98692.29;25124;1312;3026842;-66
2022/04/06 03:58:47;;;;;;;23.80;10.60;;;;;;;7.16;75.07;98693.32;25075;1313;3055178;-68
2022/04/06 04:01:17;;;;;;;19.20;10.30;;;;;;;7.61;73.34;98692.33;25080;1312;3026701;-66
2022/04/06 04:03:46;;;;;;;23.20;11.90;;;;;;;7.53;73.15;98699.80;25152;1312;3026495;-62
2022/04/06 04:06:17;;;;;;;25.80;11.60;;;;;;;7.65;72.85;98701.16;25149;1312;3052922;-63
2022/04/06 04:08:47;;;;;;;31.50;12.70;;;;;;;7.33;73.60;98703.98;25150;1313;3027159;-68
2022/04/06 04:11:34;;;;;;;23.50;12.20;;;;;;;6.95;75.48;98717.31;25179;1312;3059399;-67
2022/04/06 04:14:04;;;;;;;22.10;12.50;;;;;;;6.98;74.99;98715.21;25160;1312;3026508;-72
2022/04/06 04:16:34;;;;;;;21.60;11.50;;;;;;;7.00;75.40;98720.21;25099;1312;3026537;-68
2022/04/06 04:19:03;;;;;;;21.30;12.00;;;;;;;7.42;73.96;98716.01;25114;1312;3027620;-69
2022/04/06 04:21:32;;;;;;;27.30;12.00;;;;;;;7.80;72.50;98718.39;25129;1313;3051415;-63
2022/04/06 04:24:03;;;;;;;25.50;13.00;;;;;;;7.94;71.55;98725.73;25089;1312;3026719;-68
2022/04/06 04:26:34;;;;;;;25.70;13.30;;;;;;;7.67;71.84;98730.34;25151;1312;3026349;-66
2022/04/06 04:29:04;;;;;;;24.40;13.60;;;;;;;7.56;72.08;98739.91;25142;1312;3027322;-70
2022/04/06 04:31:35;;;;;;;20.80;11.80;;;;;;;7.53;71.81;98745.30;25113;1312;3026676;-75
2022/04/06 04:34:05;;;;;;;22.50;12.80;;;;;;;7.27;72.91;98754.81;24810;1312;3487452;-65
2022/04/06 04:36:34;;;;;;;24.20;10.80;;;;;;;7.05;74.03;98759.59;25158;1312;3026155;-70
2022/04/06 04:39:10;;;;;;;23.80;11.10;;;;;;;7.72;72.32;98759.33;25081;1312;3057420;-65
2022/04/06 04:41:39;;;;;;;21.40;12.10;;;;;;;7.96;70.79;98756.36;25127;1313;3026297;-67
2022/04/06 04:44:08;;;;;;;27.50;13.50;;;;;;;7.78;70.95;98754.98;25190;1311;3026883;-68
2022/04/06 04:46:38;;;;;;;23.60;13.90;;;;;;;7.87;70.40;98757.71;25101;1314;3058314;-71
2022/04/06 04:49:08;;;;;;;29.60;14.00;;;;;;;7.51;71.28;98770.83;25080;1313;3026342;-72
2022/04/06 04:51:37;;;;;;;24.50;12.00;;;;;;;7.31;72.13;98767.87;25091;1313;3026876;-66
2022/04/06 04:54:08;;;;;;;21.40;12.50;;;;;;;7.37;71.32;98773.59;25090;1312;3027531;-70
2022/04/06 04:56:40;;;;;;;21.50;12.30;;;;;;;7.30;71.23;98774.70;25118;1312;3026734;-66
2022/04/06 04:59:09;;;;;;;22.30;10.30;;;;;;;7.14;71.93;98781.17;25164;1312;3026601;-69
2022/04/06 05:01:38;;;;;;;23.20;10.20;;;;;;;7.50;71.27;98776.15;25152;1312;3026313;-66
2022/04/06 05:04:07;;;;;;;21.70;11.40;;;;;;;8.32;68.80;98781.70;25133;1312;3071235;-67
2022/04/06 05:06:38;;;;;;;23.00;12.00;;;;;;;8.27;68.06;98788.93;25062;1312;3026917;-65
2022/04/06 05:09:07;;;;;;;26.70;13.40;;;;;;;7.97;68.60;98787.64;25084;1312;3029611;-70
2022/04/06 05:11:36;;;;;;;26.20;13.40;;;;;;;7.70;69.57;98786.45;25136;1312;3026582;-65
2022/04/06 05:14:05;;;;;;;25.20;13.70;;;;;;;7.58;69.91;98800.40;25122;1312;3051960;-67
2022/04/06 05:16:35;;;;;;;30.60;15.00;;;;;;;7.25;70.51;98802.48;25129;1312;3026671;-65
2022/04/06 05:19:05;;;;;;;29.10;15.50;;;;;;;7.14;71.46;98798.11;25112;1312;3026968;-68
2022/04/06 05:21:34;;;;;;;28.60;14.40;;;;;;;7.04;71.94;98797.08;25145;1312;3051800;-66
2022/04/06 05:24:06;;;;;;;21.80;10.40;;;;;;;7.18;71.55;98799.09;25147;1312;3026976;-70
2022/04/06 05:26:35;;;;;;;21.10;12.90;;;;;;;7.77;69.77;98794.58;25108;1312;3026806;-70
2022/04/06 05:29:04;;;;;;;23.80;12.50;;;;;;;8.35;67.36;98798.57;25346;1313;3050886;-61
2022/04/06 05:31:34;;;;;;;24.40;12.60;;;;;;;8.25;67.00;98792.40;25511;1312;3026325;-63
2022/04/06 05:34:05;;;;;;;31.00;15.30;;;;;;;8.35;67.03;98795.95;25544;1312;3070354;-63
2022/04/06 05:36:33;;;;;;;27.70;14.00;;;;;;;8.09;66.91;98804.56;25219;1312;3028378;-70
2022/04/06 05:39:03;;;;;;;30.00;14.20;;;;;;;8.13;67.14;98803.42;25137;1312;3050422;-64
2022/04/06 05:41:34;;;;;;;29.40;15.90;;;;;;;8.06;67.28;98800.92;25061;1312;3028679;-67
2022/04/06 05:44:04;;;;;;;27.50;14.50;;;;;;;7.89;66.95;98806.09;25128;1312;3026976;-65
2022/04/06 05:46:33;;;;;;;27.00;15.30;;;;;;;7.72;67.30;98815.49;25082;1313;3027629;-64
2022/04/06 05:49:02;;;;;;;23.40;13.30;;;;;;;7.78;67.31;98813.22;25154;1311;3026334;-67
2022/04/06 05:51:31;;;;;;;29.80;13.50;;;;;;;7.75;67.12;98821.06;25110;1313;3051272;-71
2022/04/06 05:54:03;;;;;;;24.30;12.70;;;;;;;7.72;66.97;98827.67;25136;1313;3026218;-67
2022/04/06 05:57:57;;;;;;;25.00;12.00;;;;;;;8.00;66.03;98830.04;31459;1319;3026172;-63
2022/04/06 06:00:26;;;;;;;26.40;16.30;;;;;;;8.24;65.06;98820.54;24914;1322;3026757;-73
2022/04/06 06:02:56;;;;;;;29.00;13.30;;;;;;;8.58;62.94;98823.73;24992;1322;3026892;-70
2022/04/06 06:05:25;;;;;;;20.40;11.60;;;;;;;8.35;62.91;98828.95;24955;1322;3026939;-68
2022/04/06 06:07:53;;;;;;;19.70;10.80;;;;;;;8.26;62.76;98835.95;25035;1322;3051545;-66
2022/04/06 06:10:41;;;;;;;18.90;10.40;;;;;;;8.41;62.22;98833.49;24842;1322;3205761;-66
2022/04/06 06:13:10;;;;;;;22.70;9.90;;;;;;;8.37;61.26;98841.92;24967;1318;3026375;-69
2022/04/06 06:15:57;;;;;;;19.20;10.00;;;;;;;8.39;60.83;98832.89;24961;1318;3052656;-67
2022/04/06 06:18:29;;;;;;;14.40;8.50;;;;;;;8.40;61.13;98839.29;25006;1319;3027874;-65
2022/04/06 06:21:00;;;;;;;24.00;10.60;;;;;;;8.49;60.97;98838.97;24992;1318;3057042;-65
2022/04/06 06:23:30;;;;;;;16.60;8.70;;;;;;;8.61;59.88;98850.09;24980;1318;3026617;-67
2022/04/06 06:25:59;;;;;;;14.60;9.00;;;;;;;8.67;59.26;98861.58;25103;1318;3027328;-67
2022/04/06 06:28:29;;;;;;;19.90;9.30;;;;;;;8.62;59.17;98864.52;25005;1318;3058535;-71
2022/04/06 06:31:00;;;;;;;20.30;10.20;;;;;;;8.71;59.06;98869.20;25016;1318;3026662;-64
2022/04/06 06:33:29;;;;;;;12.90;7.70;;;;;;;8.76;59.34;98874.33;25023;1319;3027533;-68
2022/04/06 06:35:58;;;;;;;13.10;6.70;;;;;;;8.84;58.77;98883.71;25091;1318;3026252;-73
2022/04/06 06:38:28;;;;;;;13.20;8.00;;;;;;;8.83;57.74;98874.20;25106;1318;3051490;-67
2022/04/06 06:40:57;;;;;;;13.30;6.60;;;;;;;8.91;57.06;98883.83;25050;1316;3028032;-71
2022/04/06 06:43:26;;;;;;;14.40;8.50;;;;;;;8.92;57.04;98873.09;25063;1318;3057271;-70
2022/04/06 06:45:55;;;;;;;9.50;6.20;;;;;;;8.92;57.23;98876.28;25075;1316;3026642;-66
2022/04/06 06:48:24;;;;;;;14.40;8.90;;;;;;;9.12;57.17;98876.92;25103;1318;3054385;-67
2022/04/06 06:50:54;;;;;;;12.50;8.40;;;;;;;9.14;57.46;98873.48;25067;1318;3026181;-66
2022/04/06 06:53:23;;;;;;;14.20;6.60;;;;;;;9.24;57.32;98876.34;25099;1317;3026444;-71
2022/04/06 06:55:52;;;;;;;11.90;5.70;;;;;;;9.29;56.29;98885.10;25117;1318;3051433;-66
2022/04/06 06:58:21;;;;;;;16.30;6.40;;;;;;;9.36;56.05;98882.70;25105;1316;3026503;-71
2022/04/06 07:00:51;;;;;;;11.70;5.80;;;;;;;9.41;55.24;98879.27;25119;1318;3054742;-64
2022/04/06 07:03:21;;;;;;;13.10;6.10;;;;;;;9.60;55.03;98880.67;25125;1318;3027499;-73
2022/04/06 07:05:50;;;;;;;7.10;4.40;;;;;;;9.68;53.89;98881.50;25068;1318;3026372;-66
2022/04/06 07:08:20;;;;;;;12.90;4.40;;;;;;;9.73;53.34;98889.04;25066;1319;3053488;-67
2022/04/06 07:11:09;;;;;;;6.10;4.10;;;;;;;9.72;52.34;98904.00;25120;1318;3055198;-69
2022/04/06 07:13:38;;;;;;;9.90;4.90;;;;;;;9.81;52.76;98884.30;25056;1318;3026799;-66
2022/04/06 07:16:27;;;;;;;7.00;3.80;;;;;;;9.86;52.09;98893.64;25021;1318;3055199;-70
2022/04/06 07:18:56;;;;;;;10.10;4.70;;;;;;;9.90;51.42;98889.31;25051;1318;3026845;-67
2022/04/06 07:21:35;;;;;;;12.00;5.40;;;;;;;9.89;52.01;98884.14;25012;1318;3059205;-68
2022/04/06 07:24:06;;;;;;;7.20;4.50;;;;;;;9.88;51.71;98888.91;25115;1318;3027508;-73
2022/04/06 07:26:35;;;;;;;8.60;3.60;;;;;;;10.00;51.06;98889.91;25089;1316;3029077;-70
2022/04/06 07:29:04;;;;;;;6.30;4.00;;;;;;;10.15;50.61;98894.12;25132;1317;3058005;-71
2022/04/06 07:31:33;;;;;;;7.20;4.40;;;;;;;10.19;50.84;98888.08;25107;1316;3026655;-70
2022/04/06 07:34:17;;;;;;;7.80;4.90;;;;;;;10.13;51.27;98889.90;25032;1318;3054402;-68
2022/04/06 07:36:46;;;;;;;6.00;3.80;;;;;;;10.05;51.17;98894.06;25151;1318;3026454;-68
2022/04/06 07:39:15;;;;;;;11.20;4.60;;;;;;;10.33;50.59;98891.48;25108;1318;3054337;-67
2022/04/06 07:41:44;;;;;;;8.60;4.40;;;;;;;10.46;49.95;98911.11;25087;1318;3026657;-69
2022/04/06 07:44:13;;;;;;;7.60;4.50;;;;;;;10.53;49.62;98893.80;25138;1315;3026668;-69
2022/04/06 07:46:42;;;;;;;5.70;3.00;;;;;;;10.71;49.27;98916.94;25114;1315;3053846;-65
2022/04/06 07:49:11;;;;;;;4.00;3.30;;;;;;;10.69;48.53;98913.21;25115;1315;3027256;-68
2022/04/06 07:51:40;;;;;;;7.40;3.80;;;;;;;10.71;47.66;98906.45;25113;1316;3051151;-70
2022/04/06 07:54:09;;;;;;;6.30;4.60;;;;;;;10.72;48.33;98916.84;25112;1318;3026578;-70
2022/04/06 07:56:42;;;;;;;6.90;4.20;;;;;;;10.79;48.45;98925.46;25082;1315;3068940;-68
2022/04/06 07:59:11;;;;;;;8.00;3.90;;;;;;;10.87;48.38;98928.80;25148;1315;3030308;-66
2022/04/06 08:01:40;;;;;;;4.70;3.80;;;;;;;11.06;48.40;98919.20;25084;1315;3026965;-68
2022/04/06 08:04:09;;;;;;;7.60;3.80;;;;;;;11.10;48.43;98931.92;25100;1315;3026723;-65
2022/04/06 08:06:38;;;;;;;8.90;4.90;;;;;;;11.19;48.27;98945.80;25107;1315;3052774;-69
2022/04/06 08:09:27;;;;;;;7.60;4.20;;;;;;;11.02;48.78;98928.25;25121;1315;3055024;-69
2022/04/06 08:11:56;;;;;;;7.40;3.00;;;;;;;11.11;48.28;98941.30;25110;1315;3026673;-67
2022/04/06 08:14:46;;;;;;;5.40;3.30;;;;;;;11.29;47.55;98931.26;25083;1316;3051793;-72
2022/04/06 08:17:36;;;;;;;5.70;3.10;;;;;;;11.45;47.27;98912.90;25109;1315;3052360;-69
2022/04/06 08:20:26;;;;;;;13.30;3.70;;;;;;;11.42;46.30;98926.27;25116;1315;3052594;-73
2022/04/06 08:22:56;;;;;;;4.20;3.40;;;;;;;11.58;46.01;98919.18;25116;1315;3027735;-69
2022/04/06 08:25:26;;;;;;;9.10;3.10;;;;;;;11.65;45.68;98918.50;25103;1315;3026077;-73
2022/04/06 08:27:56;;;;;;;5.40;3.20;;;;;;;11.66;44.63;98926.61;25128;1315;3027285;-68
2022/04/06 08:30:25;;;;;;;6.80;3.10;;;;;;;11.60;44.32;98948.61;25131;1315;3029882;-70
2022/04/06 08:32:58;;;;;;;10.20;2.70;;;;;;;11.58;43.97;98921.57;25102;1315;3048718;-73
2022/04/06 08:35:27;;;;;;;4.20;2.40;;;;;;;11.58;43.99;98930.22;25160;1315;3028966;-69
2022/04/06 08:37:57;;;;;;;4.00;2.20;;;;;;;11.61;43.37;98939.32;25130;1315;3026590;-66
2022/04/06 08:40:26;;;;;;;9.60;2.50;;;;;;;11.65;43.19;98940.52;25082;1315;3026998;-71
2022/04/06 08:42:55;;;;;;;10.00;2.90;;;;;;;11.56;43.02;98924.58;25144;1315;3055098;-67
2022/04/06 08:45:24;;;;;;;6.80;3.60;;;;;;;11.70;43.17;98922.47;25094;1315;3027722;-67
2022/04/06 08:47:53;;;;;;;5.70;2.40;;;;;;;11.97;43.53;98923.27;25128;1315;3053045;-65
2022/04/06 08:50:27;;;;;;;2.20;1.80;;;;;;;11.98;42.43;98927.80;25082;1315;3027268;-64
2022/04/06 08:52:57;;;;;;;6.90;2.90;;;;;;;11.99;42.73;98934.61;25171;1315;3026734;-72
2022/04/06 08:55:26;;;;;;;4.90;3.10;;;;;;;11.96;42.68;98933.56;25090;1315;3026462;-69
2022/04/06 08:57:56;;;;;;;3.20;2.10;;;;;;;11.87;42.81;98935.95;25121;1315;3027297;-68
2022/04/06 09:00:26;;;;;;;4.70;2.30;;;;;;;12.09;42.40;98926.26;25127;1315;3049497;-69
2022/04/06 09:02:55;;;;;;;6.00;3.20;;;;;;;11.97;42.68;98933.83;25085;1315;3026426;-68
2022/04/06 09:05:26;;;;;;;4.80;2.60;;;;;;;12.09;42.36;98914.92;25140;1315;3026654;-72
2022/04/06 09:07:57;;;;;;;3.70;2.60;;;;;;;12.24;42.23;98915.47;25132;1315;3052645;-69
2022/04/06 09:10:47;;;;;;;2.80;2.30;;;;;;;12.32;41.98;98911.21;25023;1318;3070542;-71
2022/04/06 09:13:34;;;;;;;8.60;2.70;;;;;;;12.27;41.88;98933.73;25168;1318;3052100;-65
2022/04/06 09:16:25;;;;;;;3.80;2.40;;;;;;;12.22;42.19;98925.30;25127;1318;3052402;-75
2022/04/06 09:18:54;;;;;;;6.60;2.70;;;;;;;12.25;42.44;98933.30;25157;1318;3026585;-71
2022/04/06 09:21:23;;;;;;;5.70;2.30;;;;;;;12.34;41.94;98919.15;25104;1318;3026863;-70
2022/04/06 09:23:52;;;;;;;4.90;3.20;;;;;;;12.53;41.52;98947.36;25109;1319;3053757;-73
2022/04/06 09:26:22;;;;;;;6.90;3.10;;;;;;;12.51;41.34;98927.47;25096;1318;3026151;-66
2022/04/06 09:28:52;;;;;;;6.10;2.70;;;;;;;12.39;41.12;98916.84;25135;1318;3051454;-69
2022/04/06 09:31:21;;;;;;;5.60;2.40;;;;;;;12.69;41.13;98907.98;25144;1316;3026537;-69
2022/04/06 09:33:57;;;;;;;4.90;2.70;;;;;;;12.88;40.60;98918.99;25135;1318;3070938;-72
2022/04/06 09:36:29;;;;;;;7.20;2.40;;;;;;;13.00;40.39;98911.02;25126;1318;3048345;-72
2022/04/06 09:38:59;;;;;;;3.30;2.10;;;;;;;13.18;40.12;98927.73;25086;1319;3026578;-70
2022/04/06 09:41:30;;;;;;;3.00;1.90;;;;;;;13.19;38.86;98931.34;25096;1317;3026793;-66
2022/04/06 09:47:38;;;;;;;10.30;2.60;;;;;;;13.19;39.04;98927.77;25104;1319;3026572;-69
2022/04/06 09:50:17;;;;;;;4.20;1.90;;;;;;;13.43;38.47;98925.02;25444;1318;3053190;-63
2022/04/06 09:52:47;;;;;;;2.60;1.70;;;;;;;13.63;38.47;98927.45;25314;1318;3050901;-67
2022/04/06 09:55:16;;;;;;;3.90;1.80;;;;;;;13.79;37.95;98918.27;25120;1318;3028820;-66
2022/04/06 09:57:52;;;;;;;4.60;1.90;;;;;;;13.85;38.07;98919.33;25144;1318;3026074;-70
2022/04/06 10:00:26;;;;;;;3.60;1.90;;;;;;;13.79;37.44;98929.32;25155;1318;3054139;-74
2022/04/06 10:03:06;;;;;;;6.90;2.10;;;;;;;13.66;37.35;98917.35;25088;1318;3055010;-74
2022/04/06 10:05:39;;;;;;;3.10;1.60;;;;;;;13.58;37.59;98916.42;25081;1318;3059149;-67
2022/04/06 10:08:09;;;;;;;3.90;1.40;;;;;;;13.65;37.66;98927.47;25160;1318;3026461;-71
2022/04/06 10:10:58;;;;;;;9.30;1.90;;;;;;;13.47;38.10;98924.92;25119;1318;3053909;-70
2022/04/06 10:13:30;;;;;;;4.10;1.80;;;;;;;13.83;37.26;98937.13;25126;1315;3028576;-70
2022/04/06 10:16:20;;;;;;;3.40;1.60;;;;;;;13.92;37.46;98924.52;25068;1319;3068838;-69
2022/04/06 10:18:50;;;;;;;3.70;1.70;;;;;;;14.05;37.36;98913.44;25139;1315;3025971;-69
2022/04/06 10:22:19;;;;;;;5.80;1.80;;;;;;;13.89;37.36;98933.43;25123;1316;3054984;-76
2022/04/06 10:25:01;;;;;;;2.90;1.60;;;;;;;14.00;36.70;98923.07;25079;1316;3052527;-73
2022/04/06 10:27:35;;;;;;;6.10;1.80;;;;;;;14.14;36.23;98932.27;25132;1315;3057637;-71
2022/04/06 10:30:15;;;;;;;2.60;1.30;;;;;;;14.35;35.58;98934.38;25122;1315;3049776;-74
2022/04/06 10:32:48;;;;;;;2.70;1.60;;;;;;;14.05;36.06;98938.59;25112;1319;3052711;-68
2022/04/06 10:35:27;;;;;;;5.60;1.90;;;;;;;14.07;36.42;98934.75;25139;1315;3026372;-76
2022/04/06 10:38:00;;;;;;;5.50;1.80;;;;;;;13.92;37.23;98942.52;25135;1315;3068457;-73
2022/04/06 10:40:45;;;;;;;6.90;1.80;;;;;;;14.24;36.68;98955.40;25121;1315;3026836;-71
2022/04/06 10:43:40;;;;;;;8.30;1.80;;;;;;;14.39;35.81;98938.29;25128;1315;3054642;-69
2022/04/06 10:46:14;;;;;;;2.30;1.70;;;;;;;14.28;36.40;98955.55;25208;1315;3055208;-71
2022/04/06 10:49:07;;;;;;;4.00;1.50;;;;;;;14.51;35.28;98940.89;25118;1319;3056577;-69
2022/04/06 10:51:37;;;;;;;3.70;1.60;;;;;;;14.60;35.00;98933.65;25108;1315;3051455;-72
2022/04/06 10:54:13;;;;;;;2.90;1.60;;;;;;;14.63;35.19;98942.74;25133;1315;3026460;-67
2022/04/06 10:56:55;;;;;;;3.30;1.50;;;;;;;14.55;35.30;98940.92;25116;1315;3051081;-71
2022/04/06 10:59:28;;;;;;;3.90;1.70;;;;;;;14.56;35.18;98939.80;25122;1316;3068361;-68
2022/04/06 11:02:14;;;;;;;3.50;1.60;;;;;;;14.63;35.21;98945.36;25134;1316;3026972;-69
2022/04/06 11:04:43;;;;;;;1.80;1.50;;;;;;;14.53;34.89;98969.11;25151;1315;3052669;-68
2022/04/06 11:07:15;;;;;;;8.30;1.70;;;;;;;14.39;35.27;98936.19;25101;1315;3027696;-67
2022/04/06 11:12:34;;;;;;;2.60;1.60;;;;;;;14.56;35.85;98941.36;25108;1315;3054795;-66
2022/04/06 11:15:06;;;;;;;4.40;1.80;;;;;;;14.50;36.05;98937.65;25076;1315;3026496;-65
2022/04/06 11:17:38;;;;;;;2.90;1.60;;;;;;;14.51;35.68;98941.63;25131;1315;3026847;-64
2022/04/06 11:20:14;;;;;;;7.90;1.70;;;;;;;14.39;36.06;98944.38;25118;1315;3026673;-72
2022/04/06 11:22:49;;;;;;;2.30;1.40;;;;;;;14.41;36.08;98936.67;25190;1315;3052808;-76
2022/04/06 11:25:20;;;;;;;2.60;1.90;;;;;;;14.78;35.59;98938.17;25097;1315;3051138;-69
2022/04/06 11:27:50;;;;;;;2.10;1.70;;;;;;;15.05;35.04;98938.65;25145;1315;3026765;-72
2022/04/06 11:30:23;;;;;;;6.30;1.40;;;;;;;15.19;34.41;98928.52;25110;1315;3029690;-70
2022/04/06 11:32:54;;;;;;;3.30;1.40;;;;;;;15.52;34.11;98922.99;25154;1315;3053831;-70
2022/04/06 11:35:30;;;;;;;2.40;1.20;;;;;;;15.73;33.38;98933.87;25102;1315;3026236;-69
2022/04/06 11:37:59;;;;;;;3.40;1.50;;;;;;;15.70;33.13;98956.90;25132;1315;3049659;-71
2022/04/06 11:40:28;;;;;;;3.00;1.60;;;;;;;15.55;33.34;98921.70;25081;1315;3026691;-66
2022/04/06 11:43:02;;;;;;;3.60;1.50;;;;;;;15.79;32.92;98925.73;25104;1315;3070596;-65
2022/04/06 11:45:32;;;;;;;2.10;1.20;;;;;;;15.88;32.67;98932.13;25128;1315;3026480;-67
2022/04/06 11:48:02;;;;;;;5.50;1.70;;;;;;;16.15;32.76;98925.86;25137;1315;3028860;-69
2022/04/06 11:50:41;;;;;;;5.60;1.40;;;;;;;16.18;32.42;98932.24;25080;1319;3028782;-73